Time;durP1;ratioP1;P1;durP2;ratioP2;P2;SDS_P1;SDS_P2;PMS_P1;PMS_P2;Temp;Humidity;BMP_temperature;BMP_pressure;BME280_temperature;BME280_humidity;BME280_pressure;Samples;Min_cycle;Max_cycle;Signal;HPM_P1;HPM_P2
2022/02/22 00:02:17;;;;;;;;;;;;;;;4.42;62.38;98876.41;5065992;28;19994;-61
2022/02/22 00:04:44;;;;;;;;;;;;;;;4.35;63.82;98895.16;5065911;28;19947;-60
2022/02/22 00:07:10;;;;;;;;;;;;;;;4.52;67.40;98918.81;5065659;28;19916;-61
2022/02/22 00:09:36;;;;;;;;;;;;;;;4.50;71.01;98900.16;5065490;28;19916;-61
2022/02/22 00:12:01;;;;;;;;;;;;;;;4.56;73.26;98910.28;5066005;28;19916;-61
2022/02/22 00:14:26;;;;;;;;;;;;;;;4.49;73.93;98911.19;5064675;28;19944;-60
2022/02/22 00:16:55;;;;;;;;;;;;;;;4.56;72.75;98907.75;5047167;28;19959;-61
2022/02/22 00:19:21;;;;;;;;;;;;;;;4.42;74.70;98922.31;5065240;28;19912;-62
2022/02/22 00:21:46;;;;;;;;;;;;;;;4.49;78.19;98934.13;5065172;28;20507;-61
2022/02/22 00:24:11;;;;;;;;;;;;;;;4.58;76.01;98921.34;5065930;28;20286;-61
2022/02/22 00:26:37;;;;;;;;;;;;;;;4.55;75.78;98923.91;5046743;28;20358;-60
2022/02/22 00:29:05;;;;;;;;;;;;;;;4.60;76.44;98937.44;5065858;28;19973;-63
2022/02/22 00:31:35;;;;;;;;;;;;;;;4.63;75.50;98930.63;5064616;28;20132;-61
2022/02/22 00:34:00;;;;;;;;;;;;;;;4.61;80.17;98938.31;5064487;28;20278;-62
2022/02/22 00:36:25;;;;;;;;;;;;;;;4.67;78.87;98933.13;5064803;28;20427;-60
2022/02/22 00:38:51;;;;;;;;;;;;;;;4.68;76.58;98934.84;5065241;28;20438;-61
2022/02/22 00:41:16;;;;;;;;;;;;;;;4.68;74.81;98941.66;5065130;28;20104;-61
2022/02/22 00:43:42;;;;;;;;;;;;;;;4.64;72.56;98952.75;5050597;28;19928;-62
2022/02/22 00:46:07;;;;;;;;;;;;;;;4.60;69.78;98969.75;5065101;28;19999;-61
2022/02/22 00:48:32;;;;;;;;;;;;;;;4.63;66.91;98972.31;5064666;28;19973;-59
2022/02/22 00:50:58;;;;;;;;;;;;;;;4.46;63.89;98974.13;5064799;28;19912;-61
2022/02/22 00:53:23;;;;;;;;;;;;;;;4.53;60.60;98974.06;5064973;28;19917;-61
2022/02/22 00:55:48;;;;;;;;;;;;;;;4.49;63.82;98985.13;5064097;28;20401;-61
2022/02/22 00:58:14;;;;;;;;;;;;;;;4.36;61.71;98998.84;5064907;28;19931;-61
2022/02/22 01:00:42;;;;;;;;;;;;;;;4.06;59.51;99003.31;5063918;28;20051;-62
2022/02/22 01:03:07;;;;;;;;;;;;;;;4.02;56.22;99014.34;5064528;28;19923;-59
2022/02/22 01:05:35;;;;;;;;;;;;;;;3.96;52.00;99019.47;5064749;28;19916;-59
2022/02/22 01:08:04;;;;;;;;;;;;;;;3.97;47.68;99041.56;5050713;28;19920;-61
2022/02/22 01:10:29;;;;;;;;;;;;;;;4.02;43.12;99044.09;5068005;28;19920;-62
2022/02/22 01:12:55;;;;;;;;;;;;;;;3.87;39.60;99028.00;5050841;28;19920;-61
2022/02/22 01:15:20;;;;;;;;;;;;;;;3.85;37.45;99051.78;5068128;28;19920;-60
2022/02/22 01:17:45;;;;;;;;;;;;;;;3.75;33.78;99062.03;5068798;28;19938;-61
2022/02/22 01:20:10;;;;;;;;;;;;;;;3.74;29.94;99065.44;5068130;28;19967;-62
2022/02/22 01:22:36;;;;;;;;;;;;;;;3.76;27.49;99057.75;5068269;28;19924;-60
2022/02/22 01:25:02;;;;;;;;;;;;;;;3.68;25.76;99057.81;5050000;28;19941;-61
2022/02/22 01:27:28;;;;;;;;;;;;;;;3.80;24.36;99059.44;5050473;28;19921;-60
2022/02/22 01:29:53;;;;;;;;;;;;;;;3.78;24.30;99066.25;5039063;28;20172;-61
2022/02/22 01:32:18;;;;;;;;;;;;;;;4.02;23.32;99069.56;5067924;28;19920;-61
2022/02/22 01:34:43;;;;;;;;;;;;;;;4.00;22.85;99064.47;5067452;28;19988;-62
2022/02/22 01:37:09;;;;;;;;;;;;;;;3.97;21.43;99074.69;5067422;28;19983;-62
2022/02/22 01:39:34;;;;;;;;;;;;;;;4.06;17.71;99061.91;5068708;28;19920;-62
2022/02/22 01:42:00;;;;;;;;;;;;;;;4.01;12.60;99078.91;5070153;28;20457;-62
2022/02/22 01:44:25;;;;;;;;;;;;;;;3.78;12.76;99077.28;5069923;28;19922;-62
2022/02/22 01:46:58;;;;;;;;;;;;;;;3.90;10.36;99080.63;5069765;28;20007;-62
2022/02/22 01:49:23;;;;;;;;;;;;;;;3.92;8.29;99089.13;5051408;28;20449;-62
2022/02/22 01:51:49;;;;;;;;;;;;;;;3.87;6.81;99096.78;5070433;28;20046;-61
2022/02/22 01:54:14;;;;;;;;;;;;;;;3.81;5.91;99091.72;5070221;28;19966;-62
2022/02/22 01:56:40;;;;;;;;;;;;;;;3.88;4.21;99095.09;5070402;28;20301;-62
2022/02/22 01:59:05;;;;;;;;;;;;;;;3.88;3.61;99100.22;5069699;28;20184;-62
2022/02/22 02:01:30;;;;;;;;;;;;;;;3.95;2.63;99120.56;5069255;28;19928;-62
2022/02/22 02:03:59;;;;;;;;;;;;;;;4.02;2.38;99113.72;5067943;28;19916;-62
2022/02/22 02:06:24;;;;;;;;;;;;;;;3.94;3.52;99105.25;5069008;28;19932;-63
2022/02/22 02:08:50;;;;;;;;;;;;;;;3.96;3.26;99123.94;5068513;28;19916;-61
2022/02/22 02:11:15;;;;;;;;;;;;;;;3.99;3.82;99111.19;5051114;28;19920;-62
2022/02/22 02:13:40;;;;;;;;;;;;;;;3.95;5.83;99101.88;5069019;28;19924;-62
2022/02/22 02:16:07;;;;;;;;;;;;;;;3.90;6.04;99117.19;5069083;28;20023;-61
2022/02/22 02:18:32;;;;;;;;;;;;;;;3.77;6.57;99113.81;5067688;28;19916;-62
2022/02/22 02:20:57;;;;;;;;;;;;;;;3.90;6.89;99106.13;5051001;28;19917;-61
2022/02/22 02:23:23;;;;;;;;;;;;;;;3.79;8.54;99134.19;5068369;28;19959;-63
2022/02/22 02:25:48;;;;;;;;;;;;;;;3.70;8.52;99132.50;5068101;28;20007;-62
2022/02/22 02:28:13;;;;;;;;;;;;;;;3.67;7.43;99122.34;5068779;28;19920;-62
2022/02/22 02:30:39;;;;;;;;;;;;;;;3.71;7.89;99133.34;5069023;28;19921;-61
2022/02/22 02:33:04;;;;;;;;;;;;;;;3.75;7.50;99124.84;5067883;28;19963;-62
2022/02/22 02:35:31;;;;;;;;;;;;;;;3.78;7.65;99118.03;5050443;28;19920;-61
2022/02/22 02:37:56;;;;;;;;;;;;;;;3.59;8.75;99141.88;5053206;28;19921;-63
2022/02/22 02:40:21;;;;;;;;;;;;;;;3.64;7.30;99124.88;5068480;28;20537;-62
2022/02/22 02:42:46;;;;;;;;;;;;;;;3.73;7.22;99127.41;5067314;28;19924;-63
2022/02/22 02:45:12;;;;;;;;;;;;;;;3.70;7.23;99131.66;5068374;28;19916;-62
2022/02/22 02:47:40;;;;;;;;;;;;;;;3.56;8.45;99136.78;5066237;28;20003;-63
2022/02/22 02:50:06;;;;;;;;;;;;;;;3.63;8.76;99125.75;5067008;28;19925;-62
2022/02/22 02:52:31;;;;;;;;;;;;;;;3.62;9.28;99133.38;5067704;28;20385;-61
2022/02/22 02:54:57;;;;;;;;;;;;;;;3.61;8.83;99131.69;5049237;28;20316;-62
2022/02/22 02:57:22;;;;;;;;;;;;;;;3.64;9.39;99137.59;5067112;28;20434;-63
2022/02/22 02:59:48;;;;;;;;;;;;;;;3.57;10.49;99138.47;5067377;28;19959;-61
2022/02/22 03:02:13;;;;;;;;;;;;;;;3.73;9.40;99135.03;5066742;28;20378;-62
2022/02/22 03:04:38;;;;;;;;;;;;;;;3.66;11.02;99142.72;5066259;28;19916;-63
2022/02/22 03:07:04;;;;;;;;;;;;;;;3.67;10.96;99131.66;5066957;28;20300;-62
2022/02/22 03:09:29;;;;;;;;;;;;;;;3.77;10.74;99141.81;5067468;28;19912;-62
2022/02/22 03:11:54;;;;;;;;;;;;;;;3.65;11.59;99135.91;5049357;28;19951;-60
2022/02/22 03:14:19;;;;;;;;;;;;;;;3.70;10.51;99140.16;5067165;28;19938;-61
2022/02/22 03:16:45;;;;;;;;;;;;;;;3.61;10.86;99140.16;5066723;28;19924;-62
2022/02/22 03:19:11;;;;;;;;;;;;;;;3.56;9.72;99136.78;5064538;28;19916;-61
2022/02/22 03:21:37;;;;;;;;;;;;;;;3.52;8.53;99135.94;5066076;28;19951;-61
2022/02/22 03:24:02;;;;;;;;;;;;;;;3.44;7.53;99144.44;5066804;28;20355;-61
2022/02/22 03:26:27;;;;;;;;;;;;;;;3.50;5.55;99140.19;5047383;28;19920;-61
2022/02/22 03:28:53;;;;;;;;;;;;;;;3.51;3.18;99138.47;5066904;28;20191;-61
2022/02/22 03:31:18;;;;;;;;;;;;;;;3.52;1.50;99146.13;5065345;28;20069;-63
2022/02/22 03:33:44;;;;;;;;;;;;;;;3.34;0.97;99149.53;5036660;28;19917;-62
2022/02/22 03:36:09;;;;;;;;;;;;;;;3.46;0.00;99152.91;5066656;28;19917;-63
2022/02/22 03:38:34;;;;;;;;;;;;;;;3.49;0.00;99163.09;5064681;28;19921;-62
2022/02/22 03:41:02;;;;;;;;;;;;;;;3.41;0.00;99164.81;5067087;28;19920;-62
2022/02/22 03:43:28;;;;;;;;;;;;;;;3.37;0.00;99174.13;5066547;28;20301;-61
2022/02/22 03:45:53;;;;;;;;;;;;;;;3.50;0.00;99180.06;5048525;28;19916;-61
2022/02/22 03:48:19;;;;;;;;;;;;;;;3.51;0.00;99174.13;5066516;28;19912;-61
2022/02/22 03:50:44;;;;;;;;;;;;;;;3.44;0.00;99173.25;5064324;28;20010;-61
2022/02/22 03:53:10;;;;;;;;;;;;;;;3.35;0.00;99174.16;5065211;28;19920;-62
2022/02/22 03:55:35;;;;;;;;;;;;;;;3.44;0.00;99180.91;5066311;28;19928;-63
2022/02/22 03:58:00;;;;;;;;;;;;;;;3.40;0.00;99188.53;5065752;28;19920;-61
2022/02/22 04:00:26;;;;;;;;;;;;;;;3.46;0.00;99196.19;5066492;28;19912;-61
2022/02/22 04:02:51;;;;;;;;;;;;;;;3.31;0.61;99197.06;5066274;28;19921;-62
2022/02/22 04:05:17;;;;;;;;;;;;;;;3.41;1.11;99197.91;5065611;28;20286;-61
2022/02/22 04:07:42;;;;;;;;;;;;;;;3.32;2.59;99193.66;5065573;28;19975;-61
2022/02/22 04:10:08;;;;;;;;;;;;;;;3.30;2.98;99213.16;5065062;28;19923;-61
2022/02/22 04:12:33;;;;;;;;;;;;;;;3.34;3.74;99205.53;5065218;28;19920;-61
2022/02/22 04:15:00;;;;;;;;;;;;;;;3.21;3.31;99214.00;5066051;28;19924;-61
2022/02/22 04:17:25;;;;;;;;;;;;;;;3.21;2.75;99215.69;5065913;28;19943;-63
2022/02/22 04:19:50;;;;;;;;;;;;;;;3.16;2.91;99215.69;5063764;28;20378;-61
2022/02/22 04:22:16;;;;;;;;;;;;;;;3.25;1.65;99223.34;5064720;28;19924;-61
2022/02/22 04:24:42;;;;;;;;;;;;;;;3.23;1.85;99225.03;5064943;28;19922;-61
2022/02/22 04:27:07;;;;;;;;;;;;;;;3.20;0.53;99235.22;5064872;28;20348;-61
2022/02/22 04:29:32;;;;;;;;;;;;;;;3.27;0.00;99242.00;5065127;28;19943;-61
2022/02/22 04:31:58;;;;;;;;;;;;;;;3.41;0.00;99243.72;5064653;28;20422;-60
2022/02/22 04:34:24;;;;;;;;;;;;;;;3.38;0.00;99243.72;5047241;28;19931;-61
2022/02/22 04:36:49;;;;;;;;;;;;;;;3.38;0.00;99249.66;5065362;28;19916;-61
2022/02/22 04:39:15;;;;;;;;;;;;;;;3.46;0.00;99247.94;5047291;28;19964;-61
2022/02/22 04:41:40;;;;;;;;;;;;;;;3.28;0.00;99264.06;5064597;28;20298;-61
2022/02/22 04:44:06;;;;;;;;;;;;;;;3.36;0.00;99251.34;5064616;28;19916;-60
2022/02/22 04:55:39;;;;;;;;;;;;;;;3.40;0.00;99272.56;5062807;28;20062;-62
2022/02/22 04:58:05;;;;;;;;;;;;;;;3.40;0.00;99278.53;5064101;28;20006;-62
2022/02/22 05:00:30;;;;;;;;;;;;;;;3.42;0.00;99287.00;5065358;28;19982;-61
2022/02/22 05:02:56;;;;;;;;;;;;;;;3.47;0.00;99282.78;5066304;28;20369;-63
2022/02/22 05:05:21;;;;;;;;;;;;;;;3.45;0.00;99281.91;5045894;28;20374;-62
2022/02/22 05:07:47;;;;;;;;;;;;;;;3.52;0.00;99290.41;5063649;28;20310;-62
2022/02/22 05:10:12;;;;;;;;;;;;;;;3.50;0.00;99279.38;5065314;28;19970;-62
2022/02/22 05:12:37;;;;;;;;;;;;;;;3.41;0.00;99275.13;5064624;28;20318;-61
2022/02/22 05:15:03;;;;;;;;;;;;;;;3.53;0.00;99292.09;5065063;28;20549;-63
2022/02/22 05:17:32;;;;;;;;;;;;;;;3.42;0.00;99292.09;5064890;28;19990;-62
2022/02/22 05:19:57;;;;;;;;;;;;;;;3.50;0.00;99289.56;5064517;28;19924;-61
2022/02/22 05:22:22;;;;;;;;;;;;;;;3.53;0.00;99281.91;5065110;28;19998;-62
2022/02/22 05:24:48;;;;;;;;;;;;;;;3.62;0.00;99291.25;5064318;28;19954;-61
2022/02/22 05:27:13;;;;;;;;;;;;;;;3.69;0.00;99288.69;5065281;28;19920;-62
2022/02/22 05:29:38;;;;;;;;;;;;;;;3.69;0.00;99291.25;5064638;28;19920;-62
2022/02/22 05:32:04;;;;;;;;;;;;;;;3.74;0.00;99284.47;5064873;28;19923;-61
2022/02/22 05:34:29;;;;;;;;;;;;;;;3.84;0.00;99279.38;5064227;28;19934;-62
2022/02/22 05:36:57;;;;;;;;;;;;;;;3.68;0.00;99294.66;5045905;28;19921;-62
2022/02/22 05:39:22;;;;;;;;;;;;;;;3.60;0.00;99293.78;5064583;28;19932;-62
2022/02/22 05:41:47;;;;;;;;;;;;;;;3.69;0.00;99298.88;5046878;28;19924;-61
2022/02/22 05:44:13;;;;;;;;;;;;;;;3.61;0.00;99305.69;5046733;28;20297;-61
2022/02/22 05:46:38;;;;;;;;;;;;;;;3.62;0.00;99320.13;5046166;28;19923;-61
2022/02/22 05:49:06;;;;;;;;;;;;;;;3.51;0.00;99317.56;5064235;28;20445;-61
2022/02/22 05:51:32;;;;;;;;;;;;;;;3.56;0.00;99309.94;5063846;28;20490;-61
2022/02/22 05:53:57;;;;;;;;;;;;;;;3.44;0.00;99320.09;5048059;28;20010;-61
2022/02/22 06:05:30;;;;;;;;;;;;;;;3.69;0.00;99339.66;5067309;28;19920;-62
2022/02/22 06:07:56;;;;;;;;;;;;;;;3.72;0.00;99346.47;5067323;28;20294;-62
2022/02/22 06:10:21;;;;;;;;;;;;;;;3.65;0.00;99344.72;5067334;28;19916;-60
2022/02/22 06:12:48;;;;;;;;;;;;;;;3.70;0.00;99349.00;5066206;28;19925;-60
2022/02/22 06:15:13;;;;;;;;;;;;;;;3.58;0.00;99343.03;5067646;28;20035;-61
2022/02/22 06:17:41;;;;;;;;;;;;;;;3.52;0.00;99351.53;5067352;28;20006;-62
2022/02/22 06:20:08;;;;;;;;;;;;;;;3.59;0.00;99370.22;5067807;28;20015;-61
2022/02/22 06:22:33;;;;;;;;;;;;;;;3.60;0.00;99362.56;5067939;28;19916;-61
2022/02/22 06:24:59;;;;;;;;;;;;;;;3.63;0.00;99377.84;5066705;28;19926;-61
2022/02/22 06:27:24;;;;;;;;;;;;;;;3.62;0.00;99380.41;5067587;28;19916;-61
2022/02/22 06:29:49;;;;;;;;;;;;;;;3.59;0.00;99381.25;5067412;28;19920;-62
2022/02/22 06:32:17;;;;;;;;;;;;;;;3.80;0.00;99379.59;5067840;28;19916;-61
2022/02/22 06:34:43;;;;;;;;;;;;;;;3.56;0.00;99371.91;5066968;28;19977;-62
2022/02/22 06:37:08;;;;;;;;;;;;;;;3.81;0.00;99386.34;5066457;28;19912;-62
2022/02/22 06:39:35;;;;;;;;;;;;;;;3.65;0.00;99381.25;5066790;28;19920;-61
2022/02/22 06:42:00;;;;;;;;;;;;;;;3.76;0.00;99387.22;5067802;28;19920;-62
2022/02/22 06:44:26;;;;;;;;;;;;;;;3.65;0.00;99381.25;5067104;28;20405;-61
2022/02/22 06:46:51;;;;;;;;;;;;;;;3.95;0.00;99389.78;5066403;28;20278;-62
2022/02/22 06:49:17;;;;;;;;;;;;;;;3.75;0.00;99389.75;5031331;28;19971;-61
2022/02/22 06:51:42;;;;;;;;;;;;;;;3.74;0.00;99391.47;5066197;28;19916;-61
2022/02/22 06:54:07;;;;;;;;;;;;;;;3.72;0.00;99389.78;5066276;28;19927;-62
2022/02/22 06:56:32;;;;;;;;;;;;;;;3.58;0.00;99407.56;5066336;28;19921;-62
2022/02/22 06:58:58;;;;;;;;;;;;;;;3.77;0.00;99401.66;5064932;28;19920;-61
2022/02/22 07:01:23;;;;;;;;;;;;;;;3.78;0.00;99408.44;5066894;28;20503;-62
2022/02/22 07:03:48;;;;;;;;;;;;;;;3.58;0.00;99399.06;5065819;28;19924;-61
2022/02/22 07:06:14;;;;;;;;;;;;;;;3.85;0.00;99411.00;5066730;28;19924;-62
2022/02/22 07:08:39;;;;;;;;;;;;;;;3.89;0.00;99412.72;5065541;28;19924;-61
2022/02/22 07:11:05;;;;;;;;;;;;;;;3.75;0.00;99418.63;5065399;28;19957;-61
2022/02/22 07:13:30;;;;;;;;;;;;;;;3.95;0.00;99416.13;5065364;28;19921;-62
2022/02/22 07:15:55;;;;;;;;;;;;;;;4.08;0.00;99417.00;5065943;28;20274;-62
2022/02/22 07:18:21;;;;;;;;;;;;;;;3.95;0.00;99421.22;5065773;28;19924;-62
2022/02/22 07:20:46;;;;;;;;;;;;;;;4.03;0.00;99423.75;5066126;28;19912;-62
2022/02/22 07:23:11;;;;;;;;;;;;;;;4.18;0.00;99418.69;5065222;28;19923;-62
2022/02/22 07:25:37;;;;;;;;;;;;;;;4.03;0.00;99422.91;5065949;28;19912;-61
2022/02/22 07:28:02;;;;;;;;;;;;;;;4.24;0.00;99414.44;5065490;28;20058;-62
2022/02/22 07:30:28;;;;;;;;;;;;;;;4.15;0.00;99428.91;5064963;28;20416;-62
2022/02/22 07:32:57;;;;;;;;;;;;;;;4.14;0.00;99439.91;5063782;28;20472;-61
2022/02/22 07:35:22;;;;;;;;;;;;;;;4.13;0.00;99430.59;5065741;28;19969;-61
2022/02/22 07:37:48;;;;;;;;;;;;;;;4.19;0.00;99435.66;5065376;28;19999;-62
2022/02/22 07:40:14;;;;;;;;;;;;;;;4.26;0.00;99441.63;5066744;28;20269;-62
2022/02/22 07:42:40;;;;;;;;;;;;;;;4.21;0.00;99448.44;5047452;28;19920;-62
2022/02/22 07:45:05;;;;;;;;;;;;;;;4.26;0.00;99436.53;5064952;28;19916;-62
2022/02/22 07:47:31;;;;;;;;;;;;;;;4.36;0.00;99434.84;5065059;28;19921;-61
2022/02/22 07:49:58;;;;;;;;;;;;;;;4.32;0.00;99441.63;5064874;28;20378;-62
2022/02/22 07:52:24;;;;;;;;;;;;;;;4.43;0.00;99449.28;5065347;28;19963;-62
2022/02/22 07:54:49;;;;;;;;;;;;;;;4.58;0.00;99448.44;5064815;28;19931;-62
2022/02/22 07:57:14;;;;;;;;;;;;;;;4.86;0.00;99444.16;5065696;28;19912;-61
2022/02/22 07:59:40;;;;;;;;;;;;;;;4.71;0.00;99451.84;5065982;28;19927;-61
2022/02/22 08:02:05;;;;;;;;;;;;;;;4.74;0.00;99451.81;5065330;28;20019;-62
2022/02/22 08:04:31;;;;;;;;;;;;;;;4.82;0.00;99450.97;5065590;28;20255;-61
2022/02/22 08:06:56;;;;;;;;;;;;;;;4.66;0.00;99456.09;5064960;28;19923;-62
2022/02/22 08:09:22;;;;;;;;;;;;;;;4.74;0.00;99452.66;5065054;28;20386;-61
2022/02/22 08:11:48;;;;;;;;;;;;;;;4.80;0.00;99459.47;5047179;28;20119;-62
2022/02/22 08:14:13;;;;;;;;;;;;;;;4.77;0.00;99456.94;5064788;28;19971;-62
2022/02/22 08:16:38;;;;;;;;;;;;;;;4.66;0.00;99459.50;5064593;28;19924;-61
2022/02/22 08:19:04;;;;;;;;;;;;;;;4.71;0.00;99459.47;5064249;28;19924;-61
2022/02/22 08:21:29;;;;;;;;;;;;;;;4.71;0.00;99467.13;5064489;28;20268;-61
2022/02/22 08:23:54;;;;;;;;;;;;;;;4.72;0.00;99462.03;5064847;28;19917;-62
2022/02/22 08:26:20;;;;;;;;;;;;;;;5.02;0.00;99458.59;5064664;28;20297;-61
2022/02/22 08:28:46;;;;;;;;;;;;;;;4.85;0.00;99447.56;5064694;28;19920;-62
2022/02/22 08:31:12;;;;;;;;;;;;;;;5.14;0.00;99460.25;5045490;28;19924;-62
2022/02/22 08:33:37;;;;;;;;;;;;;;;4.92;0.00;99456.03;5064704;28;19916;-62
2022/02/22 08:36:02;;;;;;;;;;;;;;;5.31;0.00;99447.41;5063601;28;19919;-61
2022/02/22 08:38:27;;;;;;;;;;;;;;;5.18;0.00;99444.06;5064338;28;19928;-61
2022/02/22 08:40:53;;;;;;;;;;;;;;;4.91;0.75;99445.00;5064136;28;19923;-62
2022/02/22 08:43:18;;;;;;;;;;;;;;;5.21;0.00;99441.50;5064264;28;20074;-60
2022/02/22 08:45:44;;;;;;;;;;;;;;;5.16;3.22;99437.28;5063561;28;19962;-62
2022/02/22 08:48:13;;;;;;;;;;;;;;;4.86;6.12;99439.06;5046240;28;19916;-61
2022/02/22 08:50:38;;;;;;;;;;;;;;;5.00;6.37;99432.22;5063496;28;19923;-60
2022/02/22 08:53:03;;;;;;;;;;;;;;;5.08;6.39;99444.09;5064200;28;20361;-60
2022/02/22 08:55:29;;;;;;;;;;;;;;;4.97;5.86;99434.78;5063858;28;19916;-62
2022/02/22 08:57:56;;;;;;;;;;;;;;;5.06;6.39;99445.81;5063943;28;20392;-62
2022/02/22 09:00:23;;;;;;;;;;;;;;;4.98;5.94;99446.69;5063642;28;19913;-62
2022/02/22 09:02:53;;;;;;;;;;;;;;;5.28;4.86;99447.44;5062344;28;19931;-62
2022/02/22 09:05:18;;;;;;;;;;;;;;;5.36;6.83;99440.63;5062288;28;20667;-62
2022/02/22 09:07:45;;;;;;;;;;;;;;;5.44;9.67;99436.31;5045860;28;19987;-61
2022/02/22 09:10:12;;;;;;;;;;;;;;;5.77;10.84;99444.69;5064305;28;20378;-60
2022/02/22 09:12:38;;;;;;;;;;;;;;;6.09;18.34;99428.34;5064279;28;20037;-61
2022/02/22 09:15:03;;;;;;;;;;;;;;;5.79;25.08;99424.22;5064546;28;19964;-62
2022/02/22 09:17:28;;;;;;;;;;;;;;;6.17;26.83;99424.00;5064372;28;19916;-61
2022/02/22 09:19:54;;;;;;;;;;;;;;;6.72;32.72;99421.84;5064015;28;19922;-61
2022/02/22 09:22:19;;;;;;;;;;;;;;;6.49;43.37;99415.22;5065282;28;19924;-60
2022/02/22 09:24:44;;;;;;;;;;;;;;;6.23;44.42;99403.50;5046287;28;20336;-60
2022/02/22 09:27:10;;;;;;;;;;;;;;;6.21;45.15;99412.88;5066294;28;20466;-61
2022/02/22 09:29:35;;;;;;;;;;;;;;;6.25;50.97;99413.72;5067576;28;19920;-62
2022/02/22 09:32:04;;;;;;;;;;;;;;;7.08;47.82;99408.66;5050215;28;19924;-61
2022/02/22 09:34:30;;;;;;;;;;;;;;;6.39;54.70;99385.47;5067558;28;19916;-61
2022/02/22 09:36:57;;;;;;;;;;;;;;;6.67;58.87;99386.06;5067487;28;19921;-62
2022/02/22 09:39:22;;;;;;;;;;;;;;;6.77;62.03;99386.81;5037931;28;20460;-62
2022/02/22 09:41:48;;;;;;;;;;;;;;;6.44;67.39;99378.59;5067862;28;19940;-62
2022/02/22 09:44:13;;;;;;;;;;;;;;;6.31;69.52;99366.78;5068149;28;20134;-61
2022/02/22 09:46:40;;;;;;;;;;;;;;;6.64;71.14;99376.69;5068355;28;19916;-60
2022/02/22 09:49:05;;;;;;;;;;;;;;;6.41;79.34;99360.69;5050559;28;19916;-61
2022/02/22 09:51:31;;;;;;;;;;;;;;;7.06;79.44;99366.84;5049783;28;20378;-61
2022/02/22 09:53:56;;;;;;;;;;;;;;;6.90;88.14;99357.66;5068031;28;19912;-61
2022/02/22 09:56:24;;;;;;;;;;;;;;;7.26;89.52;99350.41;5068589;28;19913;-61
2022/02/22 09:58:50;;;;;;;;;;;;;;;7.02;97.66;99342.13;5050347;28;19931;-62
2022/02/22 10:01:15;;;;;;;;;;;;;;;6.72;100.00;99325.41;5068484;28;19970;-62
2022/02/22 10:03:40;;;;;;;;;;;;;;;7.02;100.00;99320.81;5053798;28;20402;-61
2022/02/22 10:06:05;;;;;;;;;;;;;;;7.10;100.00;99296.78;5068064;28;20091;-62
2022/02/22 10:08:31;;;;;;;;;;;;;;;6.82;100.00;99286.06;5066431;28;19951;-61
2022/02/22 10:11:07;;;;;;;;;;;;;;;6.78;100.00;99270.78;5066906;28;20335;-61
2022/02/22 10:13:32;;;;;;;;;;;;;;;6.77;100.00;99269.06;5067675;28;20015;-60
2022/02/22 10:15:58;;;;;;;;;;;;;;;7.28;100.00;99266.69;5068064;28;20011;-61
2022/02/22 10:18:27;;;;;;;;;;;;;;;7.65;100.00;99256.72;5048676;28;19960;-61
2022/02/22 10:20:52;;;;;;;;;;;;;;;7.68;100.00;99240.44;5066882;28;19909;-61
2022/02/22 10:23:30;;;;;;;;;;;;;;;7.60;100.00;99237.16;5068601;28;20343;-61
2022/02/22 10:25:59;;;;;;;;;;;;;;;7.64;100.00;99223.41;5050144;28;19917;-60
2022/02/22 10:28:24;;;;;;;;;;;;;;;7.38;100.00;99226.41;5068204;28;19961;-61
2022/02/22 10:30:52;;;;;;;;;;;;;;;7.69;100.00;99217.34;5067155;28;20455;-60
2022/02/22 10:33:17;;;;;;;;;;;;;;;7.77;100.00;99208.69;5068038;28;19913;-61
2022/02/22 10:35:45;;;;;;;;;;;;;;;7.73;100.00;99211.31;5067418;28;20271;-61
2022/02/22 10:38:18;;;;;;;;;;;;;;;7.89;100.00;99204.19;5066576;28;19996;-61
2022/02/22 10:40:50;;;;;;;;;;;;;;;8.22;100.00;99211.28;5050364;28;20355;-60
2022/02/22 10:43:20;;;;;;;;;;;;;;;8.18;100.00;99211.31;5060667;23;19956;-82
2022/02/22 10:45:49;;;;;;;;;;;;;;;8.33;100.00;99205.06;5026634;28;19988;-81
2022/02/22 10:48:24;;;;;;;;;;;;;;;7.91;100.00;99199.88;5029794;28;19990;-81
2022/02/22 10:50:53;;;;;;;;;;;;;;;7.85;100.00;99199.97;5031590;28;19924;-82
2022/02/22 10:53:18;;;;;;;;;;;;;;;7.81;100.00;99200.91;5018382;28;19976;-81
2022/02/22 10:55:44;;;;;;;;;;;;;;;7.65;100.00;99204.59;4995636;28;19913;-81
2022/02/22 10:58:09;;;;;;;;;;;;;;;7.49;100.00;99229.63;5011633;28;19917;-79
2022/02/22 11:00:34;;;;;;;;;;;;;;;7.66;100.00;99221.66;5022792;28;20381;-82
2022/02/22 11:03:00;;;;;;;;;;;;;;;7.77;100.00;99230.03;5014650;28;19927;-84
2022/02/22 11:05:25;;;;;;;;;;;;;;;7.55;100.00;99211.63;5013533;28;20365;-82
2022/02/22 11:07:51;;;;;;;;;;;;;;;7.66;100.00;99206.28;4998567;28;19929;-82
2022/02/22 11:10:16;;;;;;;;;;;;;;;7.80;100.00;99201.78;4972166;28;19921;-83
2022/02/22 11:12:45;;;;;;;;;;;;;;;8.06;100.00;99200.47;5000410;28;19917;-81
2022/02/22 11:15:11;;;;;;;;;;;;;;;8.12;100.00;99195.22;5019898;28;20105;-80
2022/02/22 11:17:51;;;;;;;;;;;;;;;7.73;100.00;99202.75;5013619;28;20840;-82
2022/02/22 11:20:29;;;;;;;;;;;;;;;8.37;100.00;99188.75;5006261;28;19925;-81
2022/02/22 11:22:58;;;;;;;;;;;;;;;8.24;100.00;99179.59;4995998;28;19928;-81
2022/02/22 11:25:31;;;;;;;;;;;;;;;7.97;100.00;99180.97;4983557;28;20045;-81
2022/02/22 11:28:00;;;;;;;;;;;;;;;8.15;100.00;99172.06;4999176;28;19921;-81
2022/02/22 11:30:27;;;;;;;;;;;;;;;7.95;100.00;99154.50;5013893;28;19921;-81
2022/02/22 11:32:55;;;;;;;;;;;;;;;8.12;100.00;99138.81;5012979;28;20068;-78
2022/02/22 11:35:21;;;;;;;;;;;;;;;8.30;100.00;99132.44;5015588;28;19964;-80
2022/02/22 11:37:46;;;;;;;;;;;;;;;7.86;100.00;99122.19;5016959;28;19921;-82
2022/02/22 11:40:21;;;;;;;;;;;;;;;8.22;100.00;99108.66;4997691;28;19925;-80
2022/02/22 11:42:47;;;;;;;;;;;;;;;7.87;100.00;99103.38;5014501;28;19925;-81
2022/02/22 11:45:12;;;;;;;;;;;;;;;8.20;100.00;99106.13;5017174;28;19927;-83
2022/02/22 11:47:38;;;;;;;;;;;;;;;7.94;100.00;99107.50;5016138;28;19967;-83
2022/02/22 11:50:14;;;;;;;;;;;;;;;8.08;100.00;99099.53;5016404;28;20692;-83
2022/02/22 11:52:41;;;;;;;;;;;;;;;8.68;100.00;99097.44;5018565;28;19936;-81
2022/02/22 11:55:07;;;;;;;;;;;;;;;8.17;100.00;99101.06;5020776;28;19917;-81
2022/02/22 11:57:46;;;;;;;;;;;;;;;8.11;100.00;99107.16;5021835;28;19939;-82
2022/02/22 12:00:12;;;;;;;;;;;;;;;7.98;100.00;99100.56;5007931;28;20000;-82
2022/02/22 12:02:42;;;;;;;;;;;;;;;8.23;100.00;99100.91;5018051;28;20580;-83
2022/02/22 12:05:26;;;;;;;;;;;;;;;8.44;100.00;99106.50;5006997;28;20490;-83
2022/02/22 12:08:03;;;;;;;;;;;;;;;8.22;100.00;99090.72;5005609;28;20003;-80
2022/02/22 12:10:31;;;;;;;;;;;;;;;8.53;100.00;99098.59;5007596;28;19924;-83
2022/02/22 12:13:09;;;;;;;;;;;;;;;8.66;100.00;99094.88;5001014;28;20411;-84
2022/02/22 12:15:35;;;;;;;;;;;;;;;8.16;100.00;99083.97;5033159;28;19948;-79
2022/02/22 12:18:00;;;;;;;;;;;;;;;8.30;100.00;99069.16;5022198;28;19921;-82
2022/02/22 12:20:26;;;;;;;;;;;;;;;8.81;100.00;99077.47;5018343;28;19979;-81
2022/02/22 12:22:52;;;;;;;;;;;;;;;8.31;100.00;99062.28;5019953;28;19925;-81
2022/02/22 12:25:17;;;;;;;;;;;;;;;8.23;100.00;99065.00;5014892;28;19960;-81
2022/02/22 12:27:42;;;;;;;;;;;;;;;8.90;100.00;99072.09;5005384;28;19924;-83
2022/02/22 12:30:08;;;;;;;;;;;;;;;8.70;100.00;99065.69;5019559;28;19917;-84
2022/02/22 12:32:36;;;;;;;;;;;;;;;8.74;100.00;99057.06;5019039;28;20038;-83
2022/02/22 12:35:06;;;;;;;;;;;;;;;8.83;100.00;99070.56;5005252;28;19941;-82
2022/02/22 12:37:41;;;;;;;;;;;;;;;8.56;100.00;99062.63;5022011;28;19928;-81
2022/02/22 12:40:10;;;;;;;;;;;;;;;8.82;100.00;99068.88;5037129;28;19925;-80
2022/02/22 12:42:36;;;;;;;;;;;;;;;8.71;100.00;99058.84;5027303;28;19929;-86
2022/02/22 12:45:10;;;;;;;;;;;;;;;8.77;100.00;99046.69;5001581;28;19921;-83
2022/02/22 12:47:36;;;;;;;;;;;;;;;8.90;100.00;99026.72;5015921;28;20405;-84
2022/02/22 12:50:02;;;;;;;;;;;;;;;8.30;100.00;99020.41;5021536;28;19913;-82
2022/02/22 12:52:27;;;;;;;;;;;;;;;8.95;100.00;99006.88;4988531;28;19925;-85
2022/02/22 12:55:02;;;;;;;;;;;;;;;8.64;100.00;98982.84;5008293;28;19917;-85
2022/02/22 12:57:27;;;;;;;;;;;;;;;8.70;100.00;98977.56;5004327;28;19929;-84
2022/02/22 12:59:58;;;;;;;;;;;;;;;8.76;100.00;98972.28;5018604;28;19992;-85
2022/02/22 13:02:24;;;;;;;;;;;;;;;8.38;100.00;98977.44;5014599;28;19925;-85
2022/02/22 13:04:50;;;;;;;;;;;;;;;8.26;100.00;98987.16;5040474;28;19921;-82
2022/02/22 13:07:17;;;;;;;;;;;;;;;8.95;100.00;98982.94;5034370;28;19921;-82
2022/02/22 13:09:47;;;;;;;;;;;;;;;9.08;100.00;98979.16;5026510;28;19921;-83
2022/02/22 13:12:19;;;;;;;;;;;;;;;8.90;100.00;98969.38;5010245;28;19921;-81
2022/02/22 13:14:49;;;;;;;;;;;;;;;8.83;100.00;98986.66;5029280;28;19943;-83